Time;durP1;ratioP1;P1;durP2;ratioP2;P2;SDS_P1;SDS_P2;PMS_P1;PMS_P2;Temp;Humidity;BMP_temperature;BMP_pressure;BME280_temperature;BME280_humidity;BME280_pressure;Samples;Min_cycle;Max_cycle;Signal;HPM_P1;HPM_P2
2023/04/12 00:00:09;;;;;;;7.93;1.73;;;;;;;9.02;100.00;100459.75;5073124;28;20055;-56
2023/04/12 00:02:37;;;;;;;5.72;1.52;;;;;;;9.03;100.00;100440.47;5072128;28;20127;-55
2023/04/12 00:05:08;;;;;;;9.32;2.25;;;;;;;8.96;100.00;100432.13;5070890;28;20040;-55
2023/04/12 00:07:37;;;;;;;10.02;2.03;;;;;;;8.96;100.00;100427.72;5071932;28;20044;-59
2023/04/12 00:10:07;;;;;;;11.75;2.10;;;;;;;8.93;100.00;100427.06;5073815;28;20045;-59
2023/04/12 00:12:36;;;;;;;6.53;1.80;;;;;;;8.89;100.00;100415.09;5073516;28;20044;-59
2023/04/12 00:15:05;;;;;;;8.65;1.70;;;;;;;8.95;100.00;100404.22;5073847;28;20036;-59
2023/04/12 00:17:38;;;;;;;11.77;3.03;;;;;;;8.79;100.00;100399.13;5073304;28;20098;-59
2023/04/12 00:20:11;;;;;;;10.30;2.20;;;;;;;8.77;100.00;100393.16;5073154;28;20036;-59
2023/04/12 00:22:40;;;;;;;8.90;2.53;;;;;;;8.70;100.00;100395.31;5074231;28;20063;-59
2023/04/12 00:25:08;;;;;;;12.27;2.72;;;;;;;8.60;100.00;100388.97;5073157;28;20537;-58
2023/04/12 00:27:38;;;;;;;7.38;2.22;;;;;;;8.55;100.00;100384.03;5073028;28;20048;-54
2023/04/12 00:30:07;;;;;;;10.13;2.10;;;;;;;8.54;100.00;100378.91;5074315;28;20082;-54
2023/04/12 00:32:35;;;;;;;9.60;2.50;;;;;;;8.46;100.00;100372.34;5075479;28;20456;-57
2023/04/12 00:35:04;;;;;;;7.95;2.20;;;;;;;8.41;100.00;100368.31;5075348;28;20450;-57
2023/04/12 00:37:33;;;;;;;9.00;2.33;;;;;;;8.43;100.00;100364.66;5075633;28;20045;-58
2023/04/12 00:40:05;;;;;;;6.90;2.28;;;;;;;8.38;100.00;100353.63;5073497;28;20052;-57
2023/04/12 00:42:34;;;;;;;7.03;1.83;;;;;;;8.37;100.00;100345.88;5072742;28;20475;-58
2023/04/12 00:45:05;;;;;;;7.18;2.10;;;;;;;8.34;100.00;100344.28;5072174;28;20091;-55
2023/04/12 00:47:35;;;;;;;9.40;2.17;;;;;;;8.19;100.00;100335.63;5072990;28;20116;-56
2023/04/12 00:50:04;;;;;;;9.25;2.03;;;;;;;8.16;100.00;100327.94;5072774;28;20388;-56
2023/04/12 00:52:34;;;;;;;5.35;1.70;;;;;;;8.17;100.00;100319.16;5073266;28;20040;-57
2023/04/12 00:55:03;;;;;;;10.48;2.38;;;;;;;8.07;100.00;100316.28;5074182;28;20478;-56
2023/04/12 00:57:35;;;;;;;10.25;1.83;;;;;;;8.10;100.00;100312.66;5071330;28;20401;-57
2023/04/12 01:00:07;;;;;;;9.93;2.30;;;;;;;8.12;100.00;100308.13;5071508;28;20526;-54
2023/04/12 01:02:40;;;;;;;6.85;2.05;;;;;;;8.14;100.00;100295.78;5072182;28;20043;-56
2023/04/12 01:05:13;;;;;;;11.77;2.83;;;;;;;8.10;100.00;100289.06;5072363;28;20052;-56
2023/04/12 01:07:53;;;;;;;8.23;2.28;;;;;;;8.00;100.00;100293.19;5072764;28;20527;-55
2023/04/12 01:10:33;;;;;;;9.65;2.20;;;;;;;7.97;100.00;100290.78;5072400;28;20055;-56
2023/04/12 01:13:11;;;;;;;8.75;1.80;;;;;;;7.93;100.00;100288.38;5071881;28;20041;-56
2023/04/12 01:15:50;;;;;;;5.63;2.05;;;;;;;7.94;100.00;100282.16;5070485;28;20046;-55
2023/04/12 01:18:23;;;;;;;8.63;2.00;;;;;;;7.89;100.00;100281.59;5073372;28;20137;-56
2023/04/12 01:20:56;;;;;;;4.03;1.38;;;;;;;7.94;100.00;100263.84;5070945;28;20051;-56
2023/04/12 01:23:49;;;;;;;7.47;1.20;;;;;;;7.88;100.00;100237.19;5074549;28;20052;-58
2023/04/12 01:26:33;;;;;;;4.97;1.40;;;;;;;7.90;100.00;100238.78;5068942;28;20155;-57
2023/04/12 01:29:07;;;;;;;6.72;1.77;;;;;;;7.84;100.00;100228.72;5072656;28;20049;-50
2023/04/12 01:31:39;;;;;;;4.57;1.80;;;;;;;7.83;100.00;100219.19;5074326;28;20503;-52
2023/04/12 01:34:11;;;;;;;8.32;2.03;;;;;;;7.87;100.00;100214.59;5073881;28;20156;-53
2023/04/12 01:36:41;;;;;;;6.20;1.73;;;;;;;7.73;100.00;100215.44;5072855;28;20059;-53
2023/04/12 01:39:10;;;;;;;10.77;1.80;;;;;;;7.76;100.00;100207.41;5050669;28;20107;-52
2023/04/12 01:41:44;;;;;;;4.07;1.50;;;;;;;7.80;100.00;100206.28;5052175;28;20041;-51
2023/04/12 01:44:15;;;;;;;6.32;1.45;;;;;;;7.76;100.00;100184.69;5054046;28;20040;-51
2023/04/12 01:46:45;;;;;;;7.57;1.90;;;;;;;7.63;100.00;100182.97;5053846;28;20056;-51
2023/04/12 01:49:14;;;;;;;7.45;1.92;;;;;;;7.65;100.00;100173.22;5053060;28;20059;-52
2023/04/12 01:51:50;;;;;;;8.20;1.88;;;;;;;7.57;100.00;100168.50;5056112;28;20076;-53
2023/04/12 01:54:22;;;;;;;8.00;2.10;;;;;;;7.61;100.00;100157.72;5072651;28;20098;-53
2023/04/12 01:56:56;;;;;;;4.95;1.70;;;;;;;7.64;100.00;100159.31;5073856;28;20062;-53
2023/04/12 01:59:31;;;;;;;7.55;2.05;;;;;;;7.53;100.00;100151.31;5069788;28;20045;-52
2023/04/12 02:02:01;;;;;;;7.65;2.15;;;;;;;7.50;100.00;100147.09;5070867;28;20044;-53
2023/04/12 02:04:30;;;;;;;10.82;2.10;;;;;;;7.56;100.00;100136.22;5070313;28;20044;-53
2023/04/12 02:06:58;;;;;;;10.68;3.08;;;;;;;7.55;100.00;100118.88;5072218;28;20049;-53
2023/04/12 02:09:26;;;;;;;12.30;2.13;;;;;;;7.48;100.00;100122.78;5073242;28;20530;-53
2023/04/12 02:11:55;;;;;;;9.75;2.50;;;;;;;7.50;100.00;100118.31;5073270;28;20040;-53
2023/04/12 02:14:23;;;;;;;6.85;2.00;;;;;;;7.51;100.00;100117.38;5071069;28;20491;-54
2023/04/12 02:16:53;;;;;;;9.18;1.80;;;;;;;7.52;100.00;100115.59;5069853;28;20559;-54
2023/04/12 02:19:22;;;;;;;6.85;1.75;;;;;;;7.47;100.00;100109.81;5071165;28;20072;-53
2023/04/12 02:21:51;;;;;;;8.75;1.83;;;;;;;7.42;100.00;100102.28;5073054;28;20499;-52
2023/04/12 02:24:20;;;;;;;7.57;2.17;;;;;;;7.42;100.00;100100.47;5070206;28;20123;-54
2023/04/12 02:26:48;;;;;;;5.03;1.70;;;;;;;7.48;100.00;100091.41;5067940;28;20564;-54
2023/04/12 02:29:17;;;;;;;7.00;1.65;;;;;;;7.49;100.00;100094.88;5069670;28;20422;-53
2023/04/12 02:31:45;;;;;;;6.55;1.67;;;;;;;7.49;100.00;100071.31;5069988;28;20074;-53
2023/04/12 02:34:16;;;;;;;5.35;1.50;;;;;;;7.48;100.00;100065.22;5072488;28;20551;-53
2023/04/12 02:36:46;;;;;;;10.10;1.70;;;;;;;7.48;100.00;100044.28;5072752;28;20544;-51
2023/04/12 02:39:17;;;;;;;9.32;1.85;;;;;;;7.45;100.00;100026.19;5070096;28;20514;-54
2023/04/12 02:41:47;;;;;;;11.98;1.95;;;;;;;7.38;100.00;100017.91;5069372;28;20049;-52
2023/04/12 02:44:15;;;;;;;7.32;2.05;;;;;;;7.44;100.00;100012.28;5073157;28;20365;-53
2023/04/12 02:46:43;;;;;;;6.30;2.10;;;;;;;7.44;100.00;100011.44;5072850;28;20044;-57
2023/04/12 02:49:14;;;;;;;10.63;2.30;;;;;;;7.36;100.00;99993.63;5072513;28;20071;-58
2023/04/12 02:51:43;;;;;;;11.88;2.28;;;;;;;7.41;100.00;99995.94;5070641;28;20139;-57
2023/04/12 02:54:11;;;;;;;8.23;2.50;;;;;;;7.44;100.00;99980.03;5070413;28;20106;-58
2023/04/12 02:56:39;;;;;;;6.40;2.05;;;;;;;7.44;100.00;99975.66;5071260;28;20036;-58
2023/04/12 02:59:07;;;;;;;7.03;2.65;;;;;;;7.42;100.00;99967.06;5070674;28;20048;-58
2023/04/12 03:01:37;;;;;;;8.65;2.03;;;;;;;7.44;100.00;99959.09;5070659;28;20082;-58
2023/04/12 03:04:06;;;;;;;5.88;2.50;;;;;;;7.44;100.00;99954.72;5072240;28;20045;-57
2023/04/12 03:06:36;;;;;;;6.57;2.08;;;;;;;7.42;100.00;99943.50;5070796;28;20040;-57
2023/04/12 03:09:04;;;;;;;7.18;2.10;;;;;;;7.38;100.00;99960.34;5071650;28;20052;-57
2023/04/12 03:11:32;;;;;;;5.82;2.25;;;;;;;7.42;100.00;99947.91;5071266;28;20515;-57
2023/04/12 03:14:00;;;;;;;4.93;1.85;;;;;;;7.45;100.00;99934.63;5069878;28;20063;-57
2023/04/12 03:16:28;;;;;;;6.43;1.83;;;;;;;7.52;100.00;99920.19;5068731;28;20088;-58
2023/04/12 03:18:58;;;;;;;5.65;2.17;;;;;;;7.44;100.00;99906.78;5070211;28;20523;-57
2023/04/12 03:21:27;;;;;;;8.10;2.35;;;;;;;7.39;100.00;99912.31;5069968;28;20048;-56
2023/04/12 03:23:56;;;;;;;8.98;2.22;;;;;;;7.45;100.00;99914.53;5069479;28;20491;-52
2023/04/12 03:26:25;;;;;;;7.78;1.83;;;;;;;7.41;100.00;99907.81;5068660;28;20392;-53
2023/04/12 03:29:03;;;;;;;5.18;2.05;;;;;;;7.39;100.00;99891.41;5068249;28;20106;-54
2023/04/12 03:31:32;;;;;;;8.95;2.53;;;;;;;7.44;100.00;99883.22;5072790;28;20514;-54
2023/04/12 03:34:00;;;;;;;6.55;2.42;;;;;;;7.36;100.00;99889.00;5076601;28;20041;-53
2023/04/12 03:36:30;;;;;;;6.88;2.08;;;;;;;7.36;100.00;99882.91;5076485;28;20403;-54
2023/04/12 03:38:59;;;;;;;7.18;2.22;;;;;;;7.43;100.00;99881.53;5076486;28;20044;-54
2023/04/12 03:41:29;;;;;;;6.93;1.75;;;;;;;7.44;100.00;99865.78;5076653;28;20045;-53
2023/04/12 03:43:57;;;;;;;5.60;1.83;;;;;;;7.49;100.00;99859.41;5075017;28;20040;-54
2023/04/12 03:46:26;;;;;;;5.47;1.80;;;;;;;7.46;100.00;99852.59;5075238;28;20131;-54
2023/04/12 03:48:54;;;;;;;7.70;2.20;;;;;;;7.39;100.00;99867.00;5072992;28;20079;-51
2023/04/12 03:51:25;;;;;;;7.03;2.05;;;;;;;7.35;100.00;99860.31;5071739;28;20093;-52
2023/04/12 03:53:54;;;;;;;6.97;1.88;;;;;;;7.40;100.00;99853.00;5074628;28;20434;-51
2023/04/12 03:56:24;;;;;;;4.40;1.67;;;;;;;7.39;100.00;99851.31;5074310;28;20680;-52
2023/04/12 03:58:52;;;;;;;6.97;1.90;;;;;;;7.34;100.00;99843.78;5074263;28;20040;-54
2023/04/12 04:01:20;;;;;;;6.80;1.95;;;;;;;7.34;100.00;99849.00;5072000;28;20048;-54
2023/04/12 04:03:48;;;;;;;5.18;1.77;;;;;;;7.26;100.00;99844.28;5095433;28;20049;-53
2023/04/12 04:06:20;;;;;;;6.10;1.77;;;;;;;7.31;100.00;99827.44;5071710;28;20128;-54
2023/04/12 04:08:48;;;;;;;8.38;2.20;;;;;;;7.25;100.00;99833.94;5071675;28;20044;-55
2023/04/12 04:11:16;;;;;;;4.93;1.98;;;;;;;7.27;100.00;99832.88;5072690;28;20127;-54
2023/04/12 04:13:46;;;;;;;5.07;1.63;;;;;;;7.25;100.00;99818.25;5071173;28;20052;-52
2023/04/12 04:16:14;;;;;;;5.70;2.72;;;;;;;7.25;100.00;99818.25;5073928;28;20064;-55
2023/04/12 04:18:42;;;;;;;6.18;2.22;;;;;;;7.16;100.00;99813.63;5074841;28;20056;-54
2023/04/12 04:21:14;;;;;;;8.77;2.30;;;;;;;7.18;100.00;99814.38;5073587;28;20051;-53
2023/04/12 04:23:43;;;;;;;7.22;1.90;;;;;;;7.17;100.00;99797.84;5070872;28;20171;-53
2023/04/12 04:26:12;;;;;;;7.72;1.70;;;;;;;7.14;100.00;99790.19;5068272;28;20123;-53
2023/04/12 04:28:44;;;;;;;8.35;2.35;;;;;;;7.08;100.00;99780.16;5072684;28;20376;-53
2023/04/12 04:31:16;;;;;;;5.78;1.60;;;;;;;7.06;100.00;99776.81;5073797;28;20040;-55
2023/04/12 04:33:44;;;;;;;7.55;2.17;;;;;;;7.09;100.00;99774.00;5074340;28;20052;-56
2023/04/12 04:36:14;;;;;;;9.73;2.30;;;;;;;7.06;100.00;99763.72;5074201;28;20036;-59
2023/04/12 04:38:46;;;;;;;5.05;1.85;;;;;;;7.06;100.00;99766.34;5072981;28;20510;-56
2023/04/12 04:41:16;;;;;;;5.82;2.10;;;;;;;7.01;100.00;99755.34;5073643;28;20053;-56
2023/04/12 04:43:45;;;;;;;6.65;2.33;;;;;;;7.02;100.00;99762.25;5071537;28;20419;-54
2023/04/12 04:46:15;;;;;;;8.50;2.10;;;;;;;6.94;100.00;99762.81;5073657;28;20550;-55
2023/04/12 04:48:44;;;;;;;8.25;3.00;;;;;;;7.02;100.00;99757.88;5073509;28;20044;-53
2023/04/12 04:51:13;;;;;;;6.70;2.15;;;;;;;7.04;100.00;99752.56;5072328;28;20399;-53
2023/04/12 04:53:42;;;;;;;6.63;2.25;;;;;;;6.96;100.00;99747.84;5070306;28;20052;-54
2023/04/12 04:56:11;;;;;;;6.55;2.65;;;;;;;6.94;100.00;99749.72;5068460;28;20791;-51
2023/04/12 04:58:39;;;;;;;8.35;2.85;;;;;;;6.92;100.00;99735.91;5069909;28;20483;-56
2023/04/12 05:01:12;;;;;;;9.55;2.80;;;;;;;6.95;100.00;99733.09;5069428;28;20455;-56
2023/04/12 05:03:43;;;;;;;8.93;2.65;;;;;;;6.91;100.00;99731.63;5070865;28;20555;-56
2023/04/12 05:06:12;;;;;;;9.82;2.40;;;;;;;6.98;100.00;99726.81;5073971;28;20176;-56
2023/04/12 05:08:40;;;;;;;6.82;2.85;;;;;;;6.96;100.00;99718.25;5074493;28;20450;-56
2023/04/12 05:11:08;;;;;;;5.85;2.65;;;;;;;6.94;100.00;99719.19;5074471;28;20076;-56
2023/04/12 05:13:36;;;;;;;9.35;2.80;;;;;;;7.02;100.00;99723.06;5073126;28;20040;-56
2023/04/12 05:16:06;;;;;;;8.57;2.95;;;;;;;6.97;100.00;99726.00;5071067;28;20044;-54
2023/04/12 05:18:35;;;;;;;7.43;2.88;;;;;;;6.97;100.00;99714.69;5071369;28;20048;-54
2023/04/12 05:21:05;;;;;;;6.80;2.83;;;;;;;6.98;100.00;99717.22;5070821;28;20075;-53
2023/04/12 05:23:36;;;;;;;8.10;2.50;;;;;;;7.02;100.00;99713.44;5072077;28;20052;-54
2023/04/12 05:26:04;;;;;;;7.22;2.78;;;;;;;6.97;100.00;99706.84;5071528;28;20036;-51
2023/04/12 05:28:32;;;;;;;5.75;2.30;;;;;;;7.01;100.00;99705.69;5072825;28;20117;-54
2023/04/12 05:31:00;;;;;;;6.50;2.47;;;;;;;7.04;100.00;99700.28;5071250;28;20055;-53
2023/04/12 05:33:30;;;;;;;8.43;3.05;;;;;;;6.99;100.00;99702.34;5073591;28;20052;-54
2023/04/12 05:36:00;;;;;;;6.90;3.13;;;;;;;6.99;100.00;99691.91;5070655;28;20127;-54
2023/04/12 05:38:30;;;;;;;7.43;3.05;;;;;;;7.07;100.00;99689.59;5071646;28;20514;-54
2023/04/12 05:40:58;;;;;;;7.40;3.03;;;;;;;7.02;100.00;99682.06;5071745;28;20040;-53
2023/04/12 05:43:26;;;;;;;8.02;2.97;;;;;;;7.00;100.00;99686.56;5070688;28;20048;-55
2023/04/12 05:45:54;;;;;;;7.85;3.17;;;;;;;6.95;100.00;99678.19;5070837;28;20055;-53
2023/04/12 05:48:22;;;;;;;6.35;3.45;;;;;;;7.05;100.00;99686.25;5070720;28;20078;-54
2023/04/12 05:50:51;;;;;;;10.25;3.60;;;;;;;7.05;100.00;99686.25;5071148;28;20441;-52
2023/04/12 05:53:19;;;;;;;7.13;2.80;;;;;;;7.01;100.00;99688.25;5072510;28;20051;-53
2023/04/12 05:55:50;;;;;;;6.90;3.17;;;;;;;7.02;100.00;99678.59;5072865;28;20387;-52
2023/04/12 05:58:18;;;;;;;6.25;2.80;;;;;;;7.01;100.00;99684.78;5072736;28;20445;-53
2023/04/12 06:00:49;;;;;;;7.88;3.08;;;;;;;6.94;100.00;99693.03;5073728;28;20154;-54
2023/04/12 06:03:17;;;;;;;4.95;2.70;;;;;;;7.00;100.00;99698.81;5073694;28;20032;-54
2023/04/12 06:05:47;;;;;;;7.65;3.13;;;;;;;7.00;100.00;99699.63;5072498;28;20160;-56
2023/04/12 06:08:15;;;;;;;6.55;3.35;;;;;;;7.04;100.00;99681.97;5070292;28;20060;-57
2023/04/12 06:10:44;;;;;;;5.63;3.33;;;;;;;7.03;100.00;99688.13;5070463;28;20048;-57
2023/04/12 06:13:13;;;;;;;7.70;3.15;;;;;;;7.04;100.00;99689.81;5072965;28;20040;-57
2023/04/12 06:15:42;;;;;;;7.45;3.60;;;;;;;7.13;100.00;99689.19;5070157;28;20048;-57
2023/04/12 06:18:11;;;;;;;7.43;4.05;;;;;;;7.08;100.00;99679.03;5069918;28;20054;-57
2023/04/12 06:20:40;;;;;;;6.88;3.25;;;;;;;7.13;100.00;99681.34;5070324;28;20098;-54
2023/04/12 06:23:12;;;;;;;7.20;3.17;;;;;;;7.18;100.00;99678.41;5070254;28;20131;-53
2023/04/12 06:25:40;;;;;;;6.40;3.10;;;;;;;7.18;100.00;99683.63;5069725;28;20048;-54
2023/04/12 06:28:08;;;;;;;6.32;3.30;;;;;;;7.14;100.00;99679.56;5071831;28;20064;-52
2023/04/12 06:30:37;;;;;;;6.15;2.88;;;;;;;7.13;100.00;99667.41;5072209;28;20542;-49
2023/04/12 06:33:05;;;;;;;7.03;2.83;;;;;;;7.16;100.00;99675.88;5069880;28;20094;-51
2023/04/12 06:35:34;;;;;;;7.40;3.00;;;;;;;7.18;100.00;99671.38;5071979;28;20455;-53
2023/04/12 06:38:02;;;;;;;5.80;2.58;;;;;;;7.20;100.00;99669.50;5073247;28;20059;-56
2023/04/12 06:40:30;;;;;;;7.45;2.75;;;;;;;7.26;100.00;99658.59;5069057;28;20059;-53
2023/04/12 06:42:58;;;;;;;6.75;2.60;;;;;;;7.24;100.00;99655.28;5070478;28;20079;-53
2023/04/12 06:45:29;;;;;;;4.97;2.40;;;;;;;7.18;100.00;99655.69;5070004;28;20124;-56
2023/04/12 06:47:58;;;;;;;5.50;2.38;;;;;;;7.23;100.00;99653.59;5069438;28;20048;-56
2023/04/12 06:50:26;;;;;;;5.90;2.10;;;;;;;7.25;100.00;99650.88;5069826;28;20068;-57
2023/04/12 06:52:55;;;;;;;6.45;2.33;;;;;;;7.26;100.00;99655.16;5070014;28;20072;-57
2023/04/12 06:55:26;;;;;;;5.35;2.50;;;;;;;7.30;100.00;99651.38;5068839;28;20052;-57
2023/04/12 06:57:54;;;;;;;5.95;2.58;;;;;;;7.30;100.00;99653.16;5071059;28;20048;-57
2023/04/12 07:00:23;;;;;;;6.38;2.40;;;;;;;7.36;100.00;99650.09;5072739;28;20132;-54
2023/04/12 07:02:51;;;;;;;5.90;2.35;;;;;;;7.42;100.00;99640.06;5071478;28;20098;-53
2023/04/12 07:05:21;;;;;;;6.13;2.30;;;;;;;7.42;100.00;99641.84;5069293;28;20123;-54
2023/04/12 07:07:49;;;;;;;9.80;2.60;;;;;;;7.43;100.00;99644.34;5069696;28;20101;-53
2023/04/12 07:10:17;;;;;;;6.70;2.47;;;;;;;7.37;100.00;99638.72;5072653;28;20036;-56
2023/04/12 07:12:45;;;;;;;3.05;1.70;;;;;;;7.35;100.00;99624.88;5070111;28;20055;-57
2023/04/12 07:15:14;;;;;;;5.10;2.00;;;;;;;7.37;100.00;99636.09;5068805;28;20060;-57
2023/04/12 07:17:42;;;;;;;4.95;1.77;;;;;;;7.40;100.00;99633.25;5071612;28;20044;-53
2023/04/12 07:20:11;;;;;;;4.50;2.00;;;;;;;7.44;100.00;99632.09;5072502;28;20052;-53
2023/04/12 07:22:41;;;;;;;5.35;2.15;;;;;;;7.45;100.00;99626.75;5071165;28;20052;-52
2023/04/12 07:25:09;;;;;;;4.97;2.08;;;;;;;7.43;100.00;99627.78;5070635;28;20108;-53
2023/04/12 07:27:37;;;;;;;6.20;2.53;;;;;;;7.57;100.00;99630.28;5068573;28;20076;-54
2023/04/12 07:30:07;;;;;;;6.00;3.10;;;;;;;7.59;100.00;99632.78;5071356;28;20116;-55
2023/04/12 07:32:35;;;;;;;6.57;3.17;;;;;;;7.55;100.00;99633.94;5069567;28;20051;-53
2023/04/12 07:35:03;;;;;;;4.75;2.63;;;;;;;7.50;100.00;99633.44;5069017;28;20045;-53
2023/04/12 07:37:34;;;;;;;4.95;1.95;;;;;;;7.65;100.00;99637.56;5070567;28;20043;-54
2023/04/12 07:40:05;;;;;;;5.22;2.53;;;;;;;7.63;100.00;99630.78;5072294;28;20040;-57
2023/04/12 07:42:33;;;;;;;4.85;2.47;;;;;;;7.69;100.00;99636.41;5069486;28;20048;-57
2023/04/12 07:45:01;;;;;;;4.80;2.42;;;;;;;7.80;100.00;99625.16;5067717;28;20106;-57
2023/04/12 07:47:29;;;;;;;6.45;2.70;;;;;;;7.76;100.00;99629.78;5068791;28;20044;-57
2023/04/12 07:49:57;;;;;;;5.65;2.70;;;;;;;7.84;100.00;99623.13;5069154;28;20068;-57
2023/04/12 07:52:26;;;;;;;4.93;2.38;;;;;;;7.90;100.00;99625.31;5069340;28;20059;-54
2023/04/12 07:54:57;;;;;;;5.20;2.90;;;;;;;7.94;100.00;99624.97;5068616;28;20045;-57
2023/04/12 07:57:26;;;;;;;6.68;2.53;;;;;;;8.00;100.00;99620.25;5068433;28;20126;-53
2023/04/12 07:59:55;;;;;;;5.65;2.85;;;;;;;8.02;100.00;99623.59;5069008;28;20053;-54
2023/04/12 08:02:24;;;;;;;6.35;2.97;;;;;;;8.09;100.00;99623.00;5070688;28;20048;-52
2023/04/12 08:04:53;;;;;;;5.70;3.00;;;;;;;8.13;100.00;99628.88;5072339;28;20040;-57
2023/04/12 08:07:25;;;;;;;6.75;3.13;;;;;;;8.18;100.00;99631.97;5070024;28;20049;-57
2023/04/12 08:09:54;;;;;;;5.82;2.90;;;;;;;8.23;100.00;99637.69;5068920;28;20057;-57
2023/04/12 08:12:22;;;;;;;6.90;2.78;;;;;;;8.35;100.00;99630.72;5068467;28;20056;-54
2023/04/12 08:14:51;;;;;;;7.30;3.00;;;;;;;8.40;100.00;99641.69;5069807;28;20052;-54
2023/04/12 08:17:22;;;;;;;9.55;3.03;;;;;;;8.45;100.00;99631.72;5071983;28;20041;-54
2023/04/12 08:19:52;;;;;;;6.32;2.90;;;;;;;8.51;100.00;99640.06;5075881;28;20052;-53
2023/04/12 08:22:20;;;;;;;9.48;3.17;;;;;;;8.59;100.00;99645.56;5075669;28;20072;-54
2023/04/12 08:24:52;;;;;;;6.72;2.63;;;;;;;8.64;100.00;99640.78;5075910;28;20139;-54
2023/04/12 08:27:20;;;;;;;9.10;2.75;;;;;;;8.73;100.00;99623.56;5075650;28;20454;-57
2023/04/12 08:29:48;;;;;;;6.50;2.50;;;;;;;8.79;100.00;99625.69;5073627;28;20454;-58
2023/04/12 08:32:17;;;;;;;6.80;2.97;;;;;;;8.86;100.00;99624.28;5072673;28;20396;-58
2023/04/12 08:34:45;;;;;;;8.57;2.88;;;;;;;8.91;100.00;99622.13;5071928;28;20052;-55
2023/04/12 08:37:14;;;;;;;7.50;2.58;;;;;;;8.87;100.00;99628.53;5072220;28;20049;-55
2023/04/12 08:39:42;;;;;;;5.95;2.10;;;;;;;8.92;100.00;99625.59;5075228;28;20068;-54
2023/04/12 08:42:11;;;;;;;7.22;2.00;;;;;;;9.02;100.00;99633.56;5075416;28;20070;-55
2023/04/12 08:44:42;;;;;;;10.15;2.22;;;;;;;8.97;100.00;99633.91;5071698;28;20044;-54
2023/04/12 08:47:11;;;;;;;8.80;1.90;;;;;;;9.07;100.00;99623.56;5072072;28;20105;-55
2023/04/12 08:49:40;;;;;;;7.18;2.50;;;;;;;9.09;100.00;99624.25;5074754;28;20079;-54
2023/04/12 08:52:10;;;;;;;7.07;2.20;;;;;;;9.16;100.00;99630.69;5072015;28;20052;-58
2023/04/12 08:54:38;;;;;;;10.48;2.60;;;;;;;9.22;100.00;99639.88;5073801;28;20091;-59
2023/04/12 08:57:08;;;;;;;10.20;2.20;;;;;;;9.32;100.00;99642.63;5073964;28;20166;-58
2023/04/12 08:59:38;;;;;;;10.27;2.00;;;;;;;9.35;100.00;99631.88;5072588;28;20074;-57
2023/04/12 09:02:06;;;;;;;10.10;2.05;;;;;;;9.45;100.00;99638.06;5074488;28;20037;-57
2023/04/12 09:04:49;;;;;;;9.40;1.98;;;;;;;9.46;100.00;99642.34;5072689;28;20584;-57
2023/04/12 09:07:18;;;;;;;7.45;2.17;;;;;;;9.51;100.00;99639.38;5072896;28;20048;-55
2023/04/12 09:09:47;;;;;;;8.15;2.33;;;;;;;9.59;100.00;99640.41;5074513;28;20147;-55
2023/04/12 09:12:18;;;;;;;9.82;2.30;;;;;;;9.66;100.00;99632.06;5074504;28;20500;-55
2023/04/12 09:14:47;;;;;;;6.00;1.92;;;;;;;9.78;100.00;99620.56;5068918;28;20106;-56
2023/04/12 09:17:22;;;;;;;8.18;2.45;;;;;;;9.81;100.00;99622.94;5072466;28;20094;-59
2023/04/12 09:19:54;;;;;;;10.40;2.00;;;;;;;9.78;100.00;99623.19;5072780;28;20048;-59
2023/04/12 09:22:34;;;;;;;7.80;2.10;;;;;;;9.79;100.00;99614.34;5073002;28;20049;-59
2023/04/12 09:25:02;;;;;;;12.25;2.47;;;;;;;9.74;100.00;99608.63;5072893;28;20076;-57
2023/04/12 09:27:30;;;;;;;14.85;2.50;;;;;;;9.64;100.00;99603.31;5074522;28;20043;-58
2023/04/12 09:30:08;;;;;;;9.50;2.00;;;;;;;9.76;100.00;99602.31;5074560;28;20557;-58
2023/04/12 09:32:37;;;;;;;13.40;2.13;;;;;;;9.82;100.00;99606.22;5074416;28;20098;-58
2023/04/12 09:35:08;;;;;;;12.20;2.17;;;;;;;9.88;100.00;99605.69;5072434;28;20040;-55
2023/04/12 09:37:36;;;;;;;13.30;2.42;;;;;;;9.97;100.00;99604.13;5071438;28;20055;-55
2023/04/12 09:40:06;;;;;;;12.45;2.30;;;;;;;10.15;100.00;99597.34;5074100;28;20487;-58
2023/04/12 09:42:36;;;;;;;13.60;2.70;;;;;;;10.09;100.00;99602.25;5072906;28;20115;-59
2023/04/12 09:45:20;;;;;;;12.20;2.65;;;;;;;10.23;100.00;99601.97;5072035;28;20071;-55
2023/04/12 09:47:49;;;;;;;11.27;2.85;;;;;;;10.32;100.00;99592.47;5071538;28;20102;-57
2023/04/12 09:50:22;;;;;;;10.82;2.50;;;;;;;10.71;100.00;99589.28;5070055;28;20044;-56
2023/04/12 09:52:52;;;;;;;13.93;2.92;;;;;;;11.14;100.00;99591.66;5072419;28;20064;-60
2023/04/12 09:55:24;;;;;;;;;;;;;;;11.32;100.00;99586.56;5074016;28;20102;-56
2023/04/12 09:57:56;;;;;;;10.90;2.60;;;;;;;11.51;100.00;99595.47;5071412;28;20327;-56
2023/04/12 10:00:25;;;;;;;11.35;3.10;;;;;;;11.76;100.00;99599.34;5069831;28;20131;-56
2023/04/12 10:02:55;;;;;;;11.63;2.72;;;;;;;11.74;100.00;99606.59;5073812;28;20500;-55
2023/04/12 10:05:26;;;;;;;11.55;3.05;;;;;;;12.00;100.00;99591.06;5073879;28;20041;-56
2023/04/12 10:07:57;;;;;;;8.45;2.30;;;;;;;12.21;100.00;99595.34;5073883;28;20486;-60
2023/04/12 10:10:25;;;;;;;10.40;2.10;;;;;;;12.34;100.00;99592.44;5074107;28;20036;-60
2023/04/12 10:12:54;;;;;;;14.98;3.17;;;;;;;12.51;100.00;99590.84;5073645;28;20543;-60
2023/04/12 10:15:22;;;;;;;10.98;3.05;;;;;;;12.51;100.00;99594.31;5073321;28;20040;-60
2023/04/12 10:17:56;;;;;;;13.57;2.78;;;;;;;12.11;100.00;99592.72;5073059;28;20526;-60
2023/04/12 10:20:29;;;;;;;12.80;2.22;;;;;;;12.25;100.00;99595.91;5073430;28;20037;-60
2023/04/12 10:22:58;;;;;;;9.80;2.25;;;;;;;12.40;100.00;99588.41;5072654;28;20411;-60
2023/04/12 10:25:29;;;;;;;15.20;3.20;;;;;;;12.59;100.00;99583.06;5072251;28;20083;-60
2023/04/12 10:28:13;;;;;;;13.27;4.28;;;;;;;12.60;100.00;99584.72;5070631;28;20082;-60
2023/04/12 10:30:42;;;;;;;16.75;3.45;;;;;;;12.72;100.00;99574.84;5072780;28;20050;-61
2023/04/12 10:33:15;;;;;;;12.32;2.50;;;;;;;12.97;100.00;99572.50;5070638;28;20052;-56
2023/04/12 10:35:56;;;;;;;12.85;2.28;;;;;;;13.09;100.00;99579.25;5070006;28;20054;-56
2023/04/12 10:38:26;;;;;;;15.50;3.08;;;;;;;13.35;100.00;99574.13;5070611;28;20101;-56
2023/04/12 10:41:15;;;;;;;13.90;2.60;;;;;;;13.35;100.00;99574.13;5069132;28;20404;-57
2023/04/12 10:43:44;;;;;;;12.35;2.47;;;;;;;13.63;100.00;99574.09;5070279;28;20076;-60
2023/04/12 10:46:50;;;;;;;17.20;2.97;;;;;;;13.82;100.00;99572.25;5073169;28;20076;-60
2023/04/12 10:49:21;;;;;;;11.20;2.70;;;;;;;13.79;100.00;99567.28;5073415;28;20384;-60
2023/04/12 10:52:13;;;;;;;11.35;2.38;;;;;;;14.05;100.00;99566.50;5073355;28;20102;-60
2023/04/12 10:54:45;;;;;;;11.43;2.67;;;;;;;13.82;100.00;99569.63;5073171;28;20072;-60
2023/04/12 10:57:44;;;;;;;16.63;3.45;;;;;;;13.47;100.00;99571.25;5072021;28;20098;-60
2023/04/12 11:00:13;;;;;;;17.13;2.90;;;;;;;13.44;100.00;99564.50;5072791;28;20044;-60
2023/04/12 11:03:10;;;;;;;14.30;2.75;;;;;;;13.46;100.00;99569.63;5073306;28;20098;-60
2023/04/12 11:05:59;;;;;;;11.73;2.70;;;;;;;13.23;100.00;99575.28;5073086;28;20421;-60
2023/04/12 11:08:41;;;;;;;11.60;2.33;;;;;;;13.48;100.00;99567.66;5072263;28;20109;-60
2023/04/12 11:11:21;;;;;;;12.98;2.88;;;;;;;13.47;100.00;99568.63;5071979;28;20057;-60
2023/04/12 11:13:55;;;;;;;15.57;3.25;;;;;;;13.48;100.00;99571.13;5072388;28;20045;-60
2023/04/12 11:16:24;;;;;;;11.05;3.00;;;;;;;13.52;100.00;99572.50;5073011;28;20116;-60
2023/04/12 11:18:54;;;;;;;13.80;3.05;;;;;;;13.51;100.00;99576.09;5072907;28;20045;-56
2023/04/12 11:21:22;;;;;;;14.98;2.83;;;;;;;13.64;100.00;99575.72;5072716;28;20103;-56
2023/04/12 11:23:53;;;;;;;11.02;2.55;;;;;;;13.68;100.00;99579.72;5072608;28;20056;-57
2023/04/12 11:26:21;;;;;;;16.88;2.92;;;;;;;13.80;100.00;99575.06;5069413;28;20040;-56
2023/04/12 11:28:52;;;;;;;11.88;2.42;;;;;;;13.74;100.00;99588.84;5069281;28;20561;-56
2023/04/12 11:31:21;;;;;;;13.32;2.70;;;;;;;13.73;100.00;99581.09;5071080;28;20051;-57
2023/04/12 11:33:50;;;;;;;19.73;3.22;;;;;;;13.77;100.00;99585.94;5072524;28;20044;-57
2023/04/12 11:36:21;;;;;;;15.50;3.08;;;;;;;13.86;100.00;99576.25;5072367;28;20415;-56
2023/04/12 11:38:49;;;;;;;14.35;3.08;;;;;;;13.88;100.00;99584.88;5071636;28;20048;-56
2023/04/12 11:41:19;;;;;;;12.30;2.60;;;;;;;13.56;100.00;99582.75;5068994;28;20056;-57
2023/04/12 11:43:48;;;;;;;11.90;3.42;;;;;;;13.75;100.00;99581.78;5071186;28;20059;-55